Time;durP1;ratioP1;P1;durP2;ratioP2;P2;SDS_P1;SDS_P2;PMS_P1;PMS_P2;Temp;Humidity;BMP_temperature;BMP_pressure;BME280_temperature;BME280_humidity;BME280_pressure;Samples;Min_cycle;Max_cycle;Signal;HPM_P1;HPM_P2
2023/01/14 00:00:40;;;;;;;5.93;2.75;;;3.20;99.90;;;;;;5099618;28;20031;-70
2023/01/14 00:03:05;;;;;;;4.30;2.65;;;3.10;99.90;;;;;;5095720;28;20058;-71
2023/01/14 00:05:31;;;;;;;5.85;2.92;;;3.00;99.90;;;;;;5092428;28;20024;-71
2023/01/14 00:07:57;;;;;;;7.93;3.03;;;2.90;99.90;;;;;;5094047;27;20036;-72
2023/01/14 00:10:22;;;;;;;6.72;2.60;;;2.70;99.90;;;;;;5103004;28;20059;-72
2023/01/14 00:12:48;;;;;;;5.55;2.88;;;2.70;99.90;;;;;;5091174;28;20043;-72
2023/01/14 00:15:13;;;;;;;6.25;2.63;;;2.70;99.90;;;;;;5100077;28;20054;-72
2023/01/14 00:17:39;;;;;;;7.43;3.03;;;2.90;99.90;;;;;;5099256;28;20024;-72
2023/01/14 00:20:05;;;;;;;9.13;2.80;;;2.90;99.90;;;;;;5110089;27;20047;-71
2023/01/14 00:22:31;;;;;;;4.30;2.20;;;2.70;99.90;;;;;;5103669;28;20028;-71
2023/01/14 00:24:57;;;;;;;6.65;2.50;;;2.70;99.90;;;;;;5108381;28;20020;-72
2023/01/14 00:27:23;;;;;;;4.18;2.58;;;2.90;99.90;;;;;;5108005;28;20027;-71
2023/01/14 00:29:48;;;;;;;6.75;2.60;;;2.80;99.90;;;;;;5101709;28;20154;-71
2023/01/14 00:32:14;;;;;;;5.82;2.35;;;2.90;99.90;;;;;;5095703;28;20043;-72
2023/01/14 00:34:40;;;;;;;5.85;2.47;;;3.00;99.90;;;;;;5098786;28;20040;-72
2023/01/14 00:37:07;;;;;;;5.05;2.35;;;2.90;99.90;;;;;;5094648;28;20406;-71
2023/01/14 00:39:32;;;;;;;6.07;3.05;;;2.80;99.90;;;;;;5107084;28;20031;-71
2023/01/14 00:41:58;;;;;;;5.10;2.25;;;2.70;99.90;;;;;;5103480;28;20114;-71
2023/01/14 00:44:24;;;;;;;5.93;2.60;;;2.70;99.90;;;;;;5103591;27;20035;-71
2023/01/14 00:46:51;;;;;;;6.50;2.30;;;2.70;99.90;;;;;;5105698;28;22922;-71
2023/01/14 00:49:20;;;;;;;5.03;2.17;;;2.70;99.90;;;;;;5103045;28;20488;-71
2023/01/14 00:51:46;;;;;;;5.57;2.42;;;2.70;99.90;;;;;;5093682;28;20039;-72
2023/01/14 00:54:12;;;;;;;4.03;2.33;;;2.70;99.90;;;;;;5097235;28;20020;-71
2023/01/14 00:56:38;;;;;;;4.60;2.10;;;2.70;99.90;;;;;;5089656;28;20535;-72
2023/01/14 00:59:04;;;;;;;6.40;2.60;;;2.60;99.90;;;;;;5098423;28;20047;-71
2023/01/14 01:01:29;;;;;;;6.93;2.47;;;2.40;99.90;;;;;;5102493;28;20020;-71
2023/01/14 01:03:57;;;;;;;8.32;2.38;;;2.40;99.90;;;;;;5091956;28;20020;-71
2023/01/14 01:06:25;;;;;;;4.32;2.10;;;2.40;99.90;;;;;;5098346;28;20024;-71
2023/01/14 01:08:55;;;;;;;7.28;3.40;;;2.30;99.90;;;;;;5105104;28;20443;-71
2023/01/14 01:11:21;;;;;;;5.78;3.15;;;2.20;99.90;;;;;;5094276;28;20035;-72
2023/01/14 01:13:47;;;;;;;5.22;2.83;;;2.40;99.90;;;;;;5094185;28;20028;-71
2023/01/14 01:16:15;;;;;;;4.78;2.60;;;2.90;99.90;;;;;;5099331;28;20039;-71
2023/01/14 01:18:42;;;;;;;4.00;1.98;;;2.80;99.90;;;;;;5098661;28;20060;-71
2023/01/14 01:21:10;;;;;;;5.93;2.25;;;2.50;99.90;;;;;;5093807;28;20024;-72
2023/01/14 01:23:40;;;;;;;5.93;2.35;;;2.60;99.90;;;;;;5099624;28;20028;-71
2023/01/14 01:26:09;;;;;;;7.13;2.38;;;2.60;99.90;;;;;;5101379;28;20114;-72
2023/01/14 01:28:35;;;;;;;4.45;2.30;;;2.60;99.90;;;;;;5095821;28;20035;-71
2023/01/14 01:31:10;;;;;;;7.00;2.90;;;2.50;99.90;;;;;;5107201;28;20042;-72
2023/01/14 01:33:37;;;;;;;4.75;2.42;;;2.40;99.90;;;;;;5096161;28;20057;-71
2023/01/14 01:36:15;;;;;;;5.00;2.33;;;2.60;99.90;;;;;;5106852;28;20040;-71
2023/01/14 01:38:41;;;;;;;4.70;2.20;;;2.70;99.90;;;;;;5096735;27;20085;-71
2023/01/14 01:41:08;;;;;;;7.10;2.72;;;2.80;99.90;;;;;;5090681;28;20028;-71
2023/01/14 01:43:34;;;;;;;5.22;2.30;;;2.80;99.90;;;;;;5095115;28;20529;-71
2023/01/14 01:46:00;;;;;;;5.65;2.47;;;2.80;99.90;;;;;;5096555;28;20106;-71
2023/01/14 01:48:44;;;;;;;5.22;2.58;;;2.80;99.90;;;;;;5098135;28;20046;-71
2023/01/14 01:51:16;;;;;;;6.45;2.95;;;3.20;99.90;;;;;;5091440;28;20028;-71
2023/01/14 01:53:44;;;;;;;6.47;3.25;;;2.80;99.90;;;;;;5100572;27;20154;-71
2023/01/14 01:56:15;;;;;;;4.88;2.50;;;2.60;99.90;;;;;;5100338;28;20028;-72
2023/01/14 01:58:42;;;;;;;5.90;2.97;;;2.60;99.90;;;;;;5103796;28;20038;-71
2023/01/14 02:01:07;;;;;;;8.25;2.75;;;2.60;99.90;;;;;;5107555;28;20110;-72
2023/01/14 02:03:39;;;;;;;4.50;2.55;;;2.50;99.90;;;;;;5101211;28;20509;-71
2023/01/14 02:06:06;;;;;;;3.47;1.60;;;2.50;99.90;;;;;;5090166;28;20506;-71
2023/01/14 02:08:33;;;;;;;4.25;1.83;;;2.30;99.90;;;;;;5105790;28;20024;-71
2023/01/14 02:11:12;;;;;;;5.40;2.83;;;2.30;99.90;;;;;;5092875;28;20483;-72
2023/01/14 02:13:53;;;;;;;5.57;2.75;;;2.20;99.90;;;;;;5094647;28;20058;-72
2023/01/14 02:16:44;;;;;;;6.72;2.78;;;2.20;99.90;;;;;;5103515;28;20126;-71
2023/01/14 02:19:31;;;;;;;5.18;2.05;;;2.10;99.90;;;;;;5096182;27;20051;-71
2023/01/14 02:22:28;;;;;;;6.10;2.70;;;2.00;99.90;;;;;;5090348;28;20042;-72
2023/01/14 02:25:03;;;;;;;3.83;2.08;;;1.90;99.90;;;;;;5096310;28;20055;-71
2023/01/14 02:27:41;;;;;;;;;;;2.00;99.90;;;;;;5101791;28;20027;-71
2023/01/14 02:30:28;;;;;;;4.65;2.00;;;1.90;99.90;;;;;;5096213;28;19907;-72
2023/01/14 02:33:06;;;;;;;4.75;2.28;;;1.90;99.90;;;;;;5091057;28;20028;-71
2023/01/14 02:35:49;;;;;;;4.95;2.75;;;2.00;99.90;;;;;;5096537;28;20048;-71
2023/01/14 02:38:58;;;;;;;6.47;3.50;;;2.20;99.90;;;;;;5097718;28;20032;-71
2023/01/14 02:44:38;;;;;;;5.90;3.28;;;1.90;99.90;;;;;;5094116;28;20512;-72
2023/01/14 02:47:20;;;;;;;4.15;1.83;;;1.80;99.90;;;;;;5092701;28;20541;-71
2023/01/14 02:49:51;;;;;;;5.30;2.42;;;1.90;99.90;;;;;;5095449;28;20032;-71
2023/01/14 02:52:18;;;;;;;9.40;2.42;;;2.10;99.90;;;;;;5103201;28;20028;-72
2023/01/14 02:55:01;;;;;;;6.60;2.88;;;2.20;99.90;;;;;;5094819;28;20103;-72
2023/01/14 02:57:57;;;;;;;5.65;2.90;;;2.10;99.90;;;;;;5096038;28;20122;-71
2023/01/14 03:00:59;;;;;;;6.35;3.35;;;1.90;99.90;;;;;;5095269;28;20074;-71
2023/01/14 03:03:34;;;;;;;6.70;2.83;;;1.80;99.90;;;;;;5091666;28;20102;-71
2023/01/14 03:06:26;;;;;;;8.13;3.60;;;1.70;99.90;;;;;;5096561;28;20114;-72
2023/01/14 03:08:52;;;;;;;5.60;2.95;;;1.70;99.90;;;;;;5102480;28;20542;-71
2023/01/14 03:11:18;;;;;;;9.15;3.35;;;1.70;99.90;;;;;;5094694;28;20032;-72
2023/01/14 03:13:54;;;;;;;9.13;3.60;;;1.60;99.90;;;;;;5103509;28;20085;-71
2023/01/14 03:16:28;;;;;;;9.32;3.00;;;1.40;99.90;;;;;;5092882;28;20072;-71
2023/01/14 03:19:01;;;;;;;6.03;2.83;;;1.40;99.90;;;;;;5103066;28;20027;-71
2023/01/14 03:21:33;;;;;;;5.00;2.30;;;1.60;99.90;;;;;;5097703;28;20024;-71
2023/01/14 03:24:05;;;;;;;6.00;2.45;;;1.60;99.90;;;;;;5101661;28;20024;-72
2023/01/14 03:26:34;;;;;;;4.80;2.13;;;1.70;99.90;;;;;;5096644;28;20060;-71
2023/01/14 03:29:05;;;;;;;6.65;2.97;;;1.70;99.90;;;;;;5098110;28;20032;-71
2023/01/14 03:31:34;;;;;;;6.63;2.90;;;1.70;99.90;;;;;;5095109;28;20024;-71
2023/01/14 03:34:12;;;;;;;3.85;2.05;;;1.80;99.90;;;;;;5098402;28;20078;-71
2023/01/14 03:36:41;;;;;;;6.93;2.10;;;1.80;99.90;;;;;;5103787;27;20044;-71
2023/01/14 03:39:22;;;;;;;5.22;2.83;;;1.80;99.90;;;;;;5098253;28;20107;-71
2023/01/14 03:45:14;;;;;;;9.05;3.78;;;1.70;99.90;;;;;;5105380;28;20108;-71
2023/01/14 03:47:41;;;;;;;8.30;2.72;;;1.70;99.90;;;;;;5098576;28;20066;-72
2023/01/14 03:50:13;;;;;;;5.03;2.20;;;1.60;99.90;;;;;;5101483;28;20077;-71
2023/01/14 03:53:10;;;;;;;5.80;3.03;;;1.60;99.90;;;;;;5105430;28;20031;-71
2023/01/14 03:55:55;;;;;;;4.72;1.65;;;1.40;99.90;;;;;;5098914;28;20047;-71
2023/01/14 03:58:37;;;;;;;3.22;1.33;;;1.40;99.90;;;;;;5101181;28;20509;-71
2023/01/14 04:01:14;;;;;;;5.50;2.00;;;1.60;99.90;;;;;;5102372;28;20035;-70
2023/01/14 04:03:41;;;;;;;4.60;2.33;;;1.80;99.90;;;;;;5105014;28;20028;-70
2023/01/14 04:06:08;;;;;;;4.80;2.45;;;2.00;99.90;;;;;;5095822;28;20274;-70
2023/01/14 04:08:34;;;;;;;6.07;2.08;;;2.20;99.90;;;;;;5098190;28;20024;-70
2023/01/14 04:11:00;;;;;;;5.63;2.90;;;2.30;99.90;;;;;;5092524;28;20434;-70
2023/01/14 04:16:26;;;;;;;7.38;3.13;;;2.40;99.90;;;;;;5013973;28;20046;-70
2023/01/14 04:18:52;;;;;;;6.00;2.33;;;2.30;99.90;;;;;;5071971;28;20040;-70
2023/01/14 04:21:17;;;;;;;4.72;2.25;;;2.50;99.90;;;;;;5098133;28;20122;-71
2023/01/14 04:23:43;;;;;;;5.78;2.60;;;2.60;99.90;;;;;;5096069;28;20114;-70
2023/01/14 04:26:09;;;;;;;5.15;2.47;;;2.50;99.90;;;;;;5090604;28;20028;-70
2023/01/14 04:28:35;;;;;;;4.45;2.00;;;2.30;99.90;;;;;;5098669;28;20030;-70
2023/01/14 04:31:00;;;;;;;4.25;1.90;;;1.90;99.90;;;;;;5092795;28;20513;-70
2023/01/14 04:33:26;;;;;;;4.00;1.80;;;1.90;99.90;;;;;;5088363;28;20024;-70
2023/01/14 04:35:52;;;;;;;5.90;2.20;;;2.40;99.90;;;;;;5093506;28;20070;-70
2023/01/14 04:38:20;;;;;;;5.43;2.08;;;2.60;99.90;;;;;;5090069;28;20359;-71
2023/01/14 04:40:52;;;;;;;5.65;1.85;;;2.60;99.90;;;;;;5091576;28;20085;-70
2023/01/14 04:43:18;;;;;;;4.93;2.22;;;2.50;99.90;;;;;;5094625;28;20042;-70
2023/01/14 04:45:43;;;;;;;4.35;1.95;;;2.70;99.90;;;;;;5091799;27;20031;-70
2023/01/14 04:48:10;;;;;;;5.07;2.08;;;2.80;99.90;;;;;;5090133;27;20024;-70
2023/01/14 04:50:44;;;;;;;5.15;2.33;;;2.80;99.90;;;;;;5094860;28;20032;-70
2023/01/14 04:53:15;;;;;;;3.97;2.17;;;2.60;99.90;;;;;;5089186;28;20027;-70
2023/01/14 04:55:43;;;;;;;4.55;2.22;;;2.40;99.90;;;;;;5091234;28;20032;-70
2023/01/14 04:58:12;;;;;;;5.22;2.65;;;2.30;99.90;;;;;;5097871;28;20035;-70
2023/01/14 05:00:38;;;;;;;5.05;2.42;;;2.10;99.90;;;;;;5087400;28;20450;-70
2023/01/14 05:03:05;;;;;;;6.57;3.35;;;1.90;99.90;;;;;;5098218;28;20039;-70
2023/01/14 05:05:32;;;;;;;5.57;2.58;;;2.00;99.90;;;;;;5085769;28;20422;-70
2023/01/14 05:07:59;;;;;;;5.45;2.05;;;2.00;99.90;;;;;;5098703;28;20481;-70
2023/01/14 05:10:26;;;;;;;4.72;2.45;;;1.80;99.90;;;;;;5090688;28;20494;-70
2023/01/14 05:12:58;;;;;;;4.28;2.50;;;1.70;99.90;;;;;;5094804;28;20031;-70
2023/01/14 05:15:29;;;;;;;4.63;1.85;;;1.60;99.90;;;;;;5086676;28;20470;-70
2023/01/14 05:17:55;;;;;;;5.35;2.22;;;1.60;99.90;;;;;;5092811;28;20078;-70
2023/01/14 05:20:23;;;;;;;5.70;1.92;;;1.60;99.90;;;;;;5093689;28;20058;-70
2023/01/14 05:22:50;;;;;;;6.05;2.47;;;1.60;99.90;;;;;;5097668;28;20103;-70
2023/01/14 05:25:16;;;;;;;5.47;2.60;;;1.90;99.90;;;;;;5101906;27;20157;-70
2023/01/14 05:27:41;;;;;;;6.80;2.60;;;2.10;99.90;;;;;;5101419;28;20020;-70
2023/01/14 05:30:08;;;;;;;4.22;2.33;;;2.00;99.90;;;;;;5085366;27;20650;-70
2023/01/14 05:32:34;;;;;;;3.38;2.03;;;1.90;99.90;;;;;;5098517;27;20383;-70
2023/01/14 05:34:59;;;;;;;8.32;2.45;;;2.10;99.90;;;;;;5087688;27;20062;-70
2023/01/14 05:37:25;;;;;;;5.68;2.50;;;2.10;99.90;;;;;;5101424;28;20032;-70
2023/01/14 05:39:51;;;;;;;4.65;2.05;;;2.20;99.90;;;;;;5091347;28;20120;-70
2023/01/14 05:47:45;;;;;;;5.40;3.10;;;1.80;99.90;;;;;;5088195;28;20084;-70
2023/01/14 05:50:11;;;;;;;12.48;6.63;;;1.70;99.90;;;;;;5092139;28;20310;-70
2023/01/14 05:52:37;;;;;;;5.65;3.30;;;1.50;99.90;;;;;;5093660;28;20035;-71
2023/01/14 05:55:03;;;;;;;5.75;2.85;;;1.50;99.90;;;;;;5093877;28;20036;-70
2023/01/14 05:57:29;;;;;;;5.75;2.33;;;1.40;99.90;;;;;;5094174;28;20110;-71
2023/01/14 05:59:54;;;;;;;6.00;3.00;;;1.30;99.90;;;;;;5094864;28;20099;-70
2023/01/14 06:07:49;;;;;;;7.45;4.00;;;1.60;99.90;;;;;;5090258;28;20089;-70
2023/01/14 06:10:15;;;;;;;8.35;2.90;;;1.60;99.90;;;;;;5093991;28;20020;-70
2023/01/14 06:12:59;;;;;;;7.63;5.07;;;1.60;99.90;;;;;;5081937;28;20028;-70
2023/01/14 06:15:32;;;;;;;5.45;2.50;;;1.60;99.90;;;;;;5091002;28;20038;-70
2023/01/14 06:18:09;;;;;;;7.53;2.22;;;2.00;99.90;;;;;;5087317;28;20027;-70
2023/01/14 06:20:36;;;;;;;8.95;5.45;;;2.00;99.90;;;;;;5094538;28;20031;-70
2023/01/14 06:23:03;;;;;;;6.45;3.33;;;1.70;99.90;;;;;;5094514;28;20043;-71
2023/01/14 06:25:30;;;;;;;22.63;13.27;;;1.50;99.90;;;;;;5088210;28;20032;-70
2023/01/14 06:27:56;;;;;;;13.52;7.65;;;1.40;99.90;;;;;;5088283;28;20098;-70
2023/01/14 06:30:22;;;;;;;6.32;3.53;;;1.50;99.90;;;;;;5094532;28;20489;-70
2023/01/14 06:32:48;;;;;;;6.35;2.97;;;1.30;99.90;;;;;;5086443;28;20062;-70
2023/01/14 06:35:14;;;;;;;8.93;3.75;;;1.20;99.90;;;;;;5095410;28;20067;-71
2023/01/14 06:37:45;;;;;;;6.88;3.92;;;1.20;99.90;;;;;;5088422;28;20051;-73
2023/01/14 06:40:11;;;;;;;7.55;3.63;;;1.60;99.90;;;;;;5085819;28;20124;-73
2023/01/14 06:42:37;;;;;;;8.00;4.95;;;1.70;99.90;;;;;;5090122;28;20043;-72
2023/01/14 06:45:03;;;;;;;7.55;4.75;;;1.40;99.90;;;;;;5089402;28;20034;-73
2023/01/14 06:47:29;;;;;;;4.70;2.70;;;1.20;99.90;;;;;;5088039;28;20550;-72
2023/01/14 06:49:55;;;;;;;11.00;6.85;;;1.10;99.90;;;;;;5085972;28;20158;-73
2023/01/14 06:52:21;;;;;;;7.72;3.75;;;1.00;99.90;;;;;;5084422;28;20470;-72
2023/01/14 06:54:47;;;;;;;7.18;3.80;;;1.10;99.90;;;;;;5093176;28;20036;-72
2023/01/14 06:57:13;;;;;;;7.20;3.63;;;0.80;99.90;;;;;;5093385;28;20438;-73
2023/01/14 06:59:39;;;;;;;5.93;2.85;;;0.70;99.90;;;;;;5074735;28;20036;-73
2023/01/14 07:02:05;;;;;;;7.72;2.80;;;0.70;99.90;;;;;;5095023;28;20137;-73
2023/01/14 07:04:31;;;;;;;5.07;2.50;;;0.90;99.90;;;;;;5084292;28;20630;-73
2023/01/14 07:06:57;;;;;;;5.45;3.60;;;0.90;99.90;;;;;;5088448;28;20032;-73
2023/01/14 07:09:22;;;;;;;7.82;3.70;;;1.00;99.90;;;;;;5091720;28;20036;-73
2023/01/14 07:11:48;;;;;;;6.28;2.88;;;1.20;99.90;;;;;;5077594;28;20023;-73
2023/01/14 07:14:14;;;;;;;5.65;2.65;;;1.00;99.90;;;;;;5094076;28;20036;-74
2023/01/14 07:16:39;;;;;;;4.47;2.20;;;1.10;99.90;;;;;;5087374;28;20068;-73
2023/01/14 07:19:05;;;;;;;4.80;2.78;;;1.20;99.90;;;;;;5086700;28;20981;-73
2023/01/14 07:21:31;;;;;;;5.40;2.47;;;1.50;99.90;;;;;;5086854;28;20620;-72
2023/01/14 07:23:56;;;;;;;5.70;2.85;;;1.80;99.90;;;;;;5096191;28;20031;-72
2023/01/14 07:26:22;;;;;;;4.75;2.75;;;2.10;99.90;;;;;;5085189;28;20441;-72
2023/01/14 07:28:47;;;;;;;5.25;2.33;;;1.90;99.90;;;;;;5091476;28;20038;-73
2023/01/14 07:31:13;;;;;;;5.60;2.65;;;1.70;99.90;;;;;;5084733;28;20027;-72
2023/01/14 07:33:39;;;;;;;5.57;2.95;;;1.60;99.90;;;;;;5092767;28;20051;-72
2023/01/14 07:36:05;;;;;;;9.80;3.10;;;1.60;99.90;;;;;;5091741;28;20039;-72
2023/01/14 07:38:30;;;;;;;5.97;2.13;;;1.50;99.90;;;;;;5093884;28;20112;-72
2023/01/14 07:40:57;;;;;;;4.47;2.03;;;1.40;99.90;;;;;;5090707;28;20490;-72
2023/01/14 07:43:23;;;;;;;5.57;2.25;;;1.70;99.90;;;;;;5097755;28;20550;-72
2023/01/14 07:45:48;;;;;;;5.90;2.30;;;2.00;99.90;;;;;;5091054;28;20049;-72
2023/01/14 07:48:14;;;;;;;5.18;2.08;;;2.10;99.90;;;;;;5075131;28;20082;-72
2023/01/14 07:50:40;;;;;;;6.30;3.13;;;2.00;99.90;;;;;;5077339;28;20032;-72
2023/01/14 07:53:06;;;;;;;5.78;2.75;;;1.90;99.90;;;;;;5094239;28;20151;-72
2023/01/14 07:55:34;;;;;;;5.70;2.90;;;1.90;99.90;;;;;;5091952;28;20477;-73
2023/01/14 07:58:00;;;;;;;4.65;2.60;;;1.80;99.90;;;;;;5093030;28;20046;-73
2023/01/14 08:00:26;;;;;;;5.13;2.75;;;1.80;99.90;;;;;;5085926;28;20035;-73
2023/01/14 08:02:51;;;;;;;5.18;2.33;;;1.70;99.90;;;;;;5088440;28;20035;-73
2023/01/14 08:05:17;;;;;;;5.55;3.05;;;1.40;99.90;;;;;;5094252;27;20024;-73
2023/01/14 08:07:43;;;;;;;6.00;3.47;;;1.40;99.90;;;;;;5100095;28;20060;-73
2023/01/14 08:10:09;;;;;;;7.00;3.55;;;1.70;99.90;;;;;;5090967;28;20067;-73
2023/01/14 08:12:35;;;;;;;6.63;3.38;;;1.90;99.90;;;;;;5091836;28;20521;-73
2023/01/14 08:15:01;;;;;;;6.57;3.45;;;1.90;99.90;;;;;;5093469;27;20175;-73
2023/01/14 08:17:27;;;;;;;5.55;2.65;;;1.80;99.90;;;;;;5087801;28;20400;-73
2023/01/14 08:19:53;;;;;;;6.00;2.95;;;1.80;99.90;;;;;;5092622;28;20035;-73
2023/01/14 08:22:19;;;;;;;6.00;2.83;;;1.90;99.90;;;;;;5098976;28;20031;-73
2023/01/14 08:24:44;;;;;;;7.75;2.95;;;1.90;99.90;;;;;;5094999;27;20120;-73
2023/01/14 08:27:10;;;;;;;9.55;4.15;;;1.70;99.90;;;;;;5080913;28;20028;-73
2023/01/14 08:29:36;;;;;;;6.65;2.90;;;1.80;99.90;;;;;;5094815;28;20127;-73
2023/01/14 08:32:03;;;;;;;6.72;3.15;;;1.70;99.90;;;;;;5088380;28;20042;-73
2023/01/14 08:34:29;;;;;;;7.18;3.28;;;1.80;99.90;;;;;;5096680;27;20023;-73
2023/01/14 08:36:55;;;;;;;5.20;2.58;;;1.90;99.90;;;;;;5094229;28;20088;-73
2023/01/14 08:39:20;;;;;;;8.43;3.25;;;1.90;99.90;;;;;;5093785;27;20773;-73
2023/01/14 08:41:46;;;;;;;7.22;3.25;;;1.90;99.90;;;;;;5099980;27;20394;-73
2023/01/14 08:44:12;;;;;;;8.10;3.20;;;1.90;99.90;;;;;;5090136;28;20080;-73
2023/01/14 08:46:41;;;;;;;6.07;2.72;;;1.90;99.90;;;;;;5086601;28;20031;-73
2023/01/14 08:49:09;;;;;;;5.47;3.30;;;1.70;99.90;;;;;;5100920;28;20066;-73
2023/01/14 08:51:34;;;;;;;6.78;3.42;;;1.60;99.90;;;;;;5093279;28;20027;-73
2023/01/14 08:54:01;;;;;;;5.90;2.80;;;1.50;99.90;;;;;;5088015;28;20095;-73
2023/01/14 08:56:27;;;;;;;5.88;3.05;;;1.70;99.90;;;;;;5095863;28;20122;-73
2023/01/14 08:58:53;;;;;;;6.15;3.20;;;1.70;99.90;;;;;;5089723;27;20126;-73
2023/01/14 09:01:20;;;;;;;4.68;2.28;;;1.60;99.90;;;;;;5087640;27;20028;-73
2023/01/14 09:03:46;;;;;;;6.97;2.92;;;1.70;99.90;;;;;;5102098;28;20027;-73
2023/01/14 09:06:14;;;;;;;6.60;3.30;;;2.00;99.90;;;;;;5100222;28;20383;-73
2023/01/14 09:17:18;;;;;;;7.20;3.10;;;2.10;99.90;;;;;;5101445;28;20050;-73
2023/01/14 09:19:56;;;;;;;8.15;3.75;;;2.20;99.90;;;;;;5089119;28;20036;-73
2023/01/14 09:22:25;;;;;;;7.97;4.28;;;2.40;99.90;;;;;;5094762;28;20120;-73
2023/01/14 09:24:51;;;;;;;6.07;3.15;;;2.40;99.90;;;;;;5098679;28;20110;-73
2023/01/14 09:27:18;;;;;;;6.70;3.58;;;2.30;99.90;;;;;;5094498;28;20543;-73
2023/01/14 09:29:44;;;;;;;8.38;4.13;;;2.40;99.90;;;;;;5091172;28;20115;-73
2023/01/14 09:32:11;;;;;;;10.05;4.22;;;2.20;99.90;;;;;;5091347;28;20034;-73
2023/01/14 09:34:41;;;;;;;9.05;4.15;;;2.10;99.90;;;;;;5080754;28;20024;-73
2023/01/14 09:37:10;;;;;;;7.72;3.67;;;2.10;99.90;;;;;;5087208;28;20437;-73
2023/01/14 09:39:36;;;;;;;8.95;4.05;;;2.10;99.90;;;;;;5090919;28;20030;-73
2023/01/14 09:42:06;;;;;;;8.18;3.60;;;2.00;99.90;;;;;;5094139;27;20039;-73
2023/01/14 09:44:33;;;;;;;7.63;3.05;;;2.10;99.90;;;;;;5092078;28;20619;-73
2023/01/14 09:46:59;;;;;;;12.35;3.25;;;2.30;99.90;;;;;;5086004;28;20469;-73
2023/01/14 09:49:27;;;;;;;7.05;3.00;;;2.40;99.90;;;;;;5098392;27;20066;-73
2023/01/14 09:52:17;;;;;;;7.75;3.25;;;2.50;99.90;;;;;;5094883;27;20049;-73
2023/01/14 09:55:00;;;;;;;5.65;2.60;;;2.60;99.90;;;;;;5094948;28;20047;-73
2023/01/14 09:58:08;;;;;;;7.10;2.75;;;2.60;99.90;;;;;;5094026;28;21762;-73
2023/01/14 10:00:49;;;;;;;4.32;2.33;;;2.70;99.90;;;;;;5089510;28;20045;-73
2023/01/14 10:03:27;;;;;;;5.53;2.65;;;2.80;99.90;;;;;;5095735;28;20475;-73
2023/01/14 10:06:15;;;;;;;7.75;2.60;;;2.80;99.90;;;;;;5091516;27;20119;-73
2023/01/14 10:08:49;;;;;;;5.93;3.60;;;2.90;99.90;;;;;;5095630;28;20398;-74
2023/01/14 10:11:15;;;;;;;;;;;3.00;99.90;;;;;;5090672;28;20077;-73
2023/01/14 10:14:01;;;;;;;5.63;2.63;;;2.90;99.90;;;;;;5094845;27;19912;-72
2023/01/14 10:16:33;;;;;;;8.73;4.95;;;2.70;99.90;;;;;;5086401;28;20039;-72
2023/01/14 10:19:11;;;;;;;7.85;3.90;;;2.70;99.90;;;;;;5094256;28;20083;-73
2023/01/14 10:21:49;;;;;;;7.45;4.22;;;2.60;99.90;;;;;;5088588;28;20023;-73
2023/01/14 10:24:18;;;;;;;7.43;3.95;;;2.70;99.90;;;;;;5090062;28;20697;-72
2023/01/14 10:26:46;;;;;;;6.40;2.85;;;2.70;99.90;;;;;;5094827;28;20043;-72
2023/01/14 10:29:18;;;;;;;4.53;2.50;;;2.90;99.90;;;;;;5101214;28;20035;-72
2023/01/14 10:31:57;;;;;;;4.22;2.67;;;2.90;99.90;;;;;;5098169;28;20362;-72
2023/01/14 10:34:38;;;;;;;6.00;2.95;;;2.90;99.90;;;;;;5100060;28;20035;-72
2023/01/14 10:37:05;;;;;;;6.80;2.55;;;3.00;99.90;;;;;;5099962;28;20039;-72
2023/01/14 10:39:31;;;;;;;6.45;2.25;;;3.10;99.90;;;;;;5106482;28;20031;-73
2023/01/14 10:42:00;;;;;;;5.05;2.30;;;3.00;99.90;;;;;;5107697;28;20039;-72
2023/01/14 10:44:33;;;;;;;4.43;2.40;;;3.00;99.90;;;;;;5104031;28;20031;-73
2023/01/14 10:47:11;;;;;;;5.05;2.53;;;3.10;99.90;;;;;;5097606;28;20377;-72
2023/01/14 10:49:50;;;;;;;4.65;2.30;;;3.20;99.90;;;;;;5105346;28;20031;-72
2023/01/14 10:52:45;;;;;;;6.35;3.03;;;3.40;99.90;;;;;;5089817;28;20065;-73
2023/01/14 10:55:11;;;;;;;4.47;2.15;;;3.50;99.90;;;;;;5067808;28;20055;-72
2023/01/14 10:57:58;;;;;;;7.43;2.10;;;3.60;99.90;;;;;;5102454;28;20057;-72
2023/01/14 11:00:30;;;;;;;5.82;2.70;;;3.70;99.90;;;;;;5102377;28;20676;-71
2023/01/14 11:02:57;;;;;;;7.15;2.72;;;3.80;99.90;;;;;;5099929;28;20036;-72
2023/01/14 11:05:37;;;;;;;7.15;3.20;;;3.90;99.90;;;;;;5105626;28;20043;-71
2023/01/14 11:08:41;;;;;;;5.38;2.90;;;4.20;99.90;;;;;;5100537;28;20028;-71
2023/01/14 11:11:14;;;;;;;7.10;3.22;;;4.50;99.90;;;;;;5104282;28;20028;-71
2023/01/14 11:13:43;;;;;;;6.15;3.20;;;4.60;99.90;;;;;;5105348;28;20535;-71
2023/01/14 11:16:21;;;;;;;5.13;2.80;;;4.70;99.90;;;;;;5101387;28;20039;-71
2023/01/14 11:18:57;;;;;;;5.78;2.85;;;4.80;99.90;;;;;;5091354;28;20111;-72
2023/01/14 11:21:25;;;;;;;7.57;3.17;;;4.90;99.90;;;;;;5093091;27;20051;-71
2023/01/14 11:24:22;;;;;;;7.03;4.18;;;5.00;99.90;;;;;;5091371;28;20513;-72
2023/01/14 11:26:48;;;;;;;27.45;10.25;;;5.00;99.90;;;;;;5080729;28;20051;-71
2023/01/14 11:29:26;;;;;;;72.00;31.30;;;5.10;99.90;;;;;;5103728;28;20028;-71
2023/01/14 11:32:14;;;;;;;37.80;17.95;;;5.10;99.90;;;;;;5087407;28;20054;-73
2023/01/14 11:34:50;;;;;;;93.47;41.67;;;5.20;99.90;;;;;;5090149;28;20038;-71
2023/01/14 11:37:34;;;;;;;40.00;20.52;;;5.30;99.90;;;;;;5094461;28;20039;-72
2023/01/14 11:40:02;;;;;;;58.53;28.13;;;5.30;99.90;;;;;;5090592;28;20063;-71
2023/01/14 11:42:37;;;;;;;17.48;9.05;;;5.40;99.90;;;;;;5097187;28;20023;-71
2023/01/14 11:45:11;;;;;;;11.18;5.72;;;5.50;99.90;;;;;;5086950;28;20059;-71
2023/01/14 11:47:49;;;;;;;9.90;5.22;;;5.50;99.90;;;;;;5088879;28;20024;-70
2023/01/14 11:50:17;;;;;;;50.25;25.42;;;5.50;99.90;;;;;;5092980;28;20027;-71
2023/01/14 11:53:06;;;;;;;36.00;17.23;;;5.50;99.90;;;;;;5097112;28;20485;-71
2023/01/14 11:55:36;;;;;;;12.98;7.57;;;5.60;99.90;;;;;;5092819;28;20756;-70
2023/01/14 11:58:16;;;;;;;11.45;6.43;;;5.60;99.90;;;;;;5090009;27;20036;-70
2023/01/14 12:01:05;;;;;;;11.88;6.13;;;5.60;99.90;;;;;;5092036;28;20382;-70
2023/01/14 12:04:06;;;;;;;10.70;6.10;;;5.70;99.90;;;;;;5100136;27;20063;-70
2023/01/14 12:06:54;;;;;;;9.95;5.80;;;5.70;99.90;;;;;;5092434;27;20068;-71
2023/01/14 12:09:37;;;;;;;8.55;5.60;;;5.80;99.90;;;;;;5077332;28;20951;-70
2023/01/14 12:12:18;;;;;;;10.57;5.10;;;5.90;99.90;;;;;;5092799;28;20027;-70
2023/01/14 12:17:40;;;;;;;9.77;6.32;;;6.00;99.90;;;;;;5098582;28;20101;-69
2023/01/14 12:20:13;;;;;;;15.63;9.02;;;6.30;99.90;;;;;;5093182;28;20049;-68
2023/01/14 12:23:01;;;;;;;10.00;5.68;;;6.40;99.90;;;;;;5101256;28;20114;-70
2023/01/14 12:25:32;;;;;;;9.75;5.65;;;6.40;99.90;;;;;;5093689;27;20378;-69
2023/01/14 12:28:30;;;;;;;8.98;5.60;;;6.30;99.90;;;;;;5093260;28;20545;-69
2023/01/14 12:30:59;;;;;;;9.35;6.10;;;6.40;99.90;;;;;;5091643;28;20111;-69
2023/01/14 12:33:49;;;;;;;9.48;5.63;;;6.30;99.90;;;;;;5090367;28;20496;-69
2023/01/14 12:36:25;;;;;;;8.13;5.15;;;6.40;99.90;;;;;;5088307;28;20127;-70
2023/01/14 12:47:51;;;;;;;11.80;5.75;;;6.80;99.90;;;;;;5049513;28;20518;-72
2023/01/14 12:50:17;;;;;;;24.58;14.13;;;6.70;99.90;;;;;;5042669;28;20029;-72
2023/01/14 12:52:49;;;;;;;11.50;6.45;;;6.70;99.90;;;;;;5070405;28;20069;-72
2023/01/14 12:55:31;;;;;;;11.95;6.00;;;6.60;99.90;;;;;;5089470;28;20089;-72
2023/01/14 12:57:59;;;;;;;9.77;5.97;;;6.50;99.90;;;;;;5095913;28;20066;-72
2023/01/14 13:00:35;;;;;;;9.95;6.03;;;6.60;99.90;;;;;;5095102;28;20032;-72
2023/01/14 13:03:09;;;;;;;19.00;12.40;;;6.60;99.90;;;;;;5091409;28;21051;-72
2023/01/14 13:05:40;;;;;;;9.73;5.85;;;6.70;99.90;;;;;;5093868;28;20020;-72
2023/01/14 13:08:20;;;;;;;30.17;21.02;;;6.70;99.90;;;;;;5098162;28;20094;-72
2023/01/14 13:10:47;;;;;;;10.52;6.15;;;6.70;99.90;;;;;;5094543;28;20028;-72
2023/01/14 13:13:24;;;;;;;9.95;5.75;;;6.70;99.80;;;;;;5084213;28;20104;-72
2023/01/14 13:15:50;;;;;;;9.57;6.30;;;6.80;99.90;;;;;;5091784;28;20035;-72
2023/01/14 13:18:34;;;;;;;9.05;5.00;;;6.70;99.70;;;;;;5094993;28;20470;-73
2023/01/14 13:21:02;;;;;;;11.65;6.45;;;6.80;99.80;;;;;;5096807;28;20031;-72
2023/01/14 13:23:51;;;;;;;10.35;5.63;;;6.80;99.80;;;;;;5094274;28;20016;-72
2023/01/14 13:26:28;;;;;;;8.80;5.30;;;6.80;99.80;;;;;;5080672;27;21659;-72
2023/01/14 13:29:15;;;;;;;10.02;5.72;;;6.80;99.60;;;;;;5086432;28;20024;-72
2023/01/14 13:31:41;;;;;;;12.40;6.75;;;6.80;99.80;;;;;;5096864;28;20023;-72
2023/01/14 13:34:32;;;;;;;13.70;6.65;;;7.00;99.90;;;;;;5098389;28;20477;-73
2023/01/14 13:37:02;;;;;;;15.18;5.05;;;7.20;99.90;;;;;;5088460;28;20051;-72
2023/01/14 13:39:30;;;;;;;8.32;5.35;;;7.20;99.50;;;;;;5093844;28;20055;-72
2023/01/14 13:41:58;;;;;;;11.90;5.68;;;7.20;99.80;;;;;;5094405;28;20115;-72
2023/01/14 13:44:31;;;;;;;8.85;5.10;;;7.20;99.50;;;;;;5092959;28;20075;-72
2023/01/14 13:47:21;;;;;;;11.32;5.82;;;7.20;99.60;;;;;;5089231;28;20206;-72
2023/01/14 13:50:08;;;;;;;9.35;4.88;;;7.20;99.40;;;;;;5091714;28;20103;-72
2023/01/14 13:52:45;;;;;;;8.77;5.60;;;7.20;99.00;;;;;;5090175;28;20066;-72
2023/01/14 13:55:28;;;;;;;8.80;5.15;;;7.20;99.20;;;;;;5093862;28;20069;-72
2023/01/14 13:57:59;;;;;;;7.72;5.15;;;7.20;99.30;;;;;;5090540;28;20088;-72